createdAt,value
2023-01-07T00:02:09.013Z,80.24
2023-01-07T00:04:37.292Z,81.35
2023-01-07T00:07:05.239Z,79.77
2023-01-07T00:09:33.208Z,78.94
2023-01-07T00:12:01.475Z,76.27
2023-01-07T00:14:29.396Z,77.91
2023-01-07T00:16:57.305Z,78.96
2023-01-07T00:19:25.649Z,77.46
2023-01-07T00:21:53.690Z,77.16
2023-01-07T00:24:21.588Z,78.05
2023-01-07T00:26:49.927Z,77.64
2023-01-07T00:29:18.901Z,83.36
2023-01-07T00:31:47.090Z,82.22
2023-01-07T00:34:16.078Z,81.35
2023-01-07T00:36:46.130Z,79.52
2023-01-07T00:39:21.434Z,78.97
2023-01-07T00:42:08.796Z,82.31
2023-01-07T00:44:38.132Z,81.39
2023-01-07T00:47:06.670Z,81.03
2023-01-07T00:49:34.689Z,79.49
2023-01-07T00:52:02.620Z,80.12
2023-01-07T00:54:31.057Z,80.29
2023-01-07T00:56:58.988Z,80.86
2023-01-07T00:59:27.114Z,80.86
2023-01-07T01:01:55.582Z,86.31
2023-01-07T01:04:25.599Z,85.66
2023-01-07T01:06:53.541Z,81.49
2023-01-07T01:09:22.601Z,81.38
2023-01-07T01:11:50.686Z,82.05
2023-01-07T01:14:18.619Z,84.98
2023-01-07T01:16:46.876Z,85.17
2023-01-07T01:19:15.472Z,86.09
2023-01-07T01:21:43.407Z,83.83
2023-01-07T01:24:11.765Z,82.56
2023-01-07T01:26:39.771Z,83.53
2023-01-07T01:29:07.788Z,82.99
2023-01-07T01:31:36.262Z,83.71
2023-01-07T01:34:04.709Z,85.66
2023-01-07T01:36:32.980Z,85.31
2023-01-07T01:39:01.349Z,83.48
2023-01-07T01:41:29.927Z,84.54
2023-01-07T01:43:58.554Z,84.42
2023-01-07T01:46:42.456Z,83.61
2023-01-07T01:49:17.234Z,84.85
2023-01-07T01:51:47.599Z,85.99
2023-01-07T01:54:16.566Z,84.34
2023-01-07T01:56:48.747Z,82.90
2023-01-07T01:59:23.742Z,86.71
2023-01-07T02:01:53.873Z,85.77
2023-01-07T02:04:23.746Z,85.32
2023-01-07T02:06:59.220Z,85.99
2023-01-07T02:09:28.146Z,86.08
2023-01-07T02:12:05.337Z,86.87
2023-01-07T02:14:39.614Z,85.73
2023-01-07T02:17:41.845Z,85.12
2023-01-07T02:20:16.051Z,86.04
2023-01-07T02:23:09.427Z,85.18
2023-01-07T02:26:08.580Z,84.53
2023-01-07T02:29:04.686Z,83.20
2023-01-07T02:32:09.012Z,82.31
2023-01-07T02:34:43.687Z,79.30
2023-01-07T02:37:11.636Z,82.88
2023-01-07T02:40:04.788Z,84.93
2023-01-07T02:43:21.573Z,83.46
2023-01-07T02:45:57.630Z,83.52
2023-01-07T02:48:26.202Z,81.68
2023-01-07T02:50:54.467Z,84.47
2023-01-07T02:53:22.504Z,84.62
2023-01-07T02:56:24.870Z,84.56
2023-01-07T02:59:45.272Z,82.83
2023-01-07T03:02:28.399Z,85.63
2023-01-07T03:05:06.737Z,85.92
2023-01-07T03:07:53.589Z,85.67
2023-01-07T03:10:30.769Z,82.73
2023-01-07T03:13:04.736Z,83.21
2023-01-07T03:15:37.540Z,82.62
2023-01-07T03:18:19.333Z,86.20
2023-01-07T03:20:50.298Z,86.38
2023-01-07T03:23:21.754Z,86.77
2023-01-07T03:25:52.238Z,85.52
2023-01-07T03:28:25.169Z,85.52
2023-01-07T03:30:55.365Z,84.42
2023-01-07T03:33:53.473Z,82.80
2023-01-07T03:36:25.561Z,85.14
2023-01-07T03:38:55.871Z,78.75
2023-01-07T03:41:43.287Z,85.57
2023-01-07T03:44:11.321Z,84.33
2023-01-07T03:46:39.648Z,84.07
2023-01-07T03:49:07.820Z,84.33
2023-01-07T03:51:36.161Z,83.01
2023-01-07T03:54:05.160Z,84.76
2023-01-07T03:56:33.219Z,84.42
2023-01-07T03:59:01.047Z,82.04
2023-01-07T04:01:30.860Z,86.47
2023-01-07T04:04:00.727Z,86.20
2023-01-07T04:06:30.887Z,85.58
2023-01-07T04:08:59.363Z,85.73
2023-01-07T04:11:28.107Z,86.53
2023-01-07T04:13:57.435Z,88.63
2023-01-07T04:16:25.833Z,87.00
2023-01-07T04:18:55.372Z,87.81
2023-01-07T04:21:23.380Z,88.28
2023-01-07T04:23:51.648Z,86.44
2023-01-07T04:26:19.681Z,86.22
2023-01-07T04:28:48.213Z,86.99
2023-01-07T04:31:16.970Z,87.37
2023-01-07T04:33:45.691Z,85.17
2023-01-07T04:36:13.979Z,81.30
2023-01-07T04:38:42.608Z,82.07
2023-01-07T04:41:10.688Z,84.87
2023-01-07T04:43:38.788Z,82.15
2023-01-07T04:46:07.536Z,82.49
2023-01-07T04:48:36.353Z,83.21
2023-01-07T04:51:04.761Z,82.97
2023-01-07T04:53:33.355Z,82.74
2023-01-07T04:56:01.459Z,81.97
2023-01-07T04:58:30.084Z,81.78
2023-01-07T05:01:03.856Z,81.89
2023-01-07T05:03:34.685Z,81.30
2023-01-07T05:06:03.871Z,83.72
2023-01-07T05:08:32.494Z,85.03
2023-01-07T05:11:00.679Z,84.96
2023-01-07T05:13:29.010Z,84.06
2023-01-07T05:15:57.139Z,84.92
2023-01-07T05:18:25.468Z,84.21
2023-01-07T05:20:53.891Z,84.50
2023-01-07T05:23:21.958Z,86.23
2023-01-07T05:25:50.278Z,86.50
2023-01-07T05:28:18.888Z,82.36
2023-01-07T05:30:47.804Z,84.17
2023-01-07T05:33:15.922Z,84.99
2023-01-07T05:35:44.313Z,82.04
2023-01-07T05:38:12.224Z,82.17
2023-01-07T05:40:42.049Z,83.14
2023-01-07T05:43:11.007Z,81.15
2023-01-07T05:45:38.970Z,84.17
2023-01-07T05:48:07.056Z,84.14
2023-01-07T05:50:35.297Z,80.40
2023-01-07T05:53:03.270Z,82.21
2023-01-07T05:55:31.217Z,81.06
2023-01-07T05:57:59.643Z,77.50
2023-01-07T06:00:27.562Z,78.55
2023-01-07T06:02:55.836Z,78.35
2023-01-07T06:05:23.759Z,78.09
2023-01-07T06:07:51.754Z,79.41
2023-01-07T06:10:20.007Z,78.31
2023-01-07T06:12:47.959Z,79.16
2023-01-07T06:15:15.920Z,81.71
2023-01-07T06:17:44.231Z,79.68
2023-01-07T06:20:15.233Z,83.73
2023-01-07T06:22:43.576Z,83.45
2023-01-07T06:25:12.630Z,83.95
2023-01-07T06:27:41.130Z,86.40
2023-01-07T06:30:10.809Z,90.40
2023-01-07T06:32:40.650Z,96.22
2023-01-07T06:35:10.160Z,94.50
2023-01-07T06:37:38.949Z,90.29
2023-01-07T06:40:09.045Z,91.28
2023-01-07T06:42:37.029Z,89.12
2023-01-07T06:45:05.454Z,87.00
2023-01-07T06:47:33.727Z,85.48
2023-01-07T06:50:01.748Z,88.24
2023-01-07T06:52:29.818Z,84.09
2023-01-07T06:54:58.098Z,83.46
2023-01-07T06:57:26.800Z,86.45
2023-01-07T06:59:54.773Z,88.79
2023-01-07T07:02:25.816Z,90.63
2023-01-07T07:04:54.229Z,88.34
2023-01-07T07:07:22.287Z,84.69
2023-01-07T07:09:50.926Z,89.68
2023-01-07T07:12:19.746Z,93.92
2023-01-07T07:14:47.797Z,95.00
2023-01-07T07:17:16.727Z,91.02
2023-01-07T07:19:44.753Z,84.86
2023-01-07T07:22:12.672Z,80.56
2023-01-07T07:24:40.995Z,79.35
2023-01-07T07:27:08.973Z,77.49
2023-01-07T07:29:36.878Z,77.39
2023-01-07T07:32:05.524Z,77.34
2023-01-07T07:34:35.753Z,78.09
2023-01-07T07:37:04.306Z,77.84
2023-01-07T07:39:33.919Z,78.17
2023-01-07T07:42:05.553Z,76.90
2023-01-07T07:44:33.933Z,82.32
2023-01-07T07:47:02.082Z,82.34
2023-01-07T07:49:30.490Z,80.34
2023-01-07T07:51:58.739Z,77.37
2023-01-07T07:54:28.280Z,76.85
2023-01-07T07:56:58.559Z,73.00
2023-01-07T07:59:27.137Z,73.35
2023-01-07T08:01:55.318Z,73.37
2023-01-07T08:04:23.651Z,71.36
2023-01-07T08:06:51.668Z,70.12
2023-01-07T08:09:19.932Z,67.22
2023-01-07T08:11:48.228Z,65.27
2023-01-07T08:14:16.149Z,64.97
2023-01-07T08:16:44.086Z,64.00
2023-01-07T08:19:12.516Z,64.92
2023-01-07T08:21:40.421Z,66.32
2023-01-07T08:24:08.526Z,66.64
2023-01-07T08:26:36.856Z,64.59
2023-01-07T08:29:04.728Z,66.09
2023-01-07T08:31:32.820Z,67.81
2023-01-07T08:34:01.365Z,65.59
2023-01-07T08:36:29.258Z,64.02
2023-01-07T08:38:57.259Z,64.30
2023-01-07T08:41:26.098Z,63.68
2023-01-07T08:43:54.242Z,62.97
2023-01-07T08:46:22.607Z,64.74
2023-01-07T08:48:51.238Z,63.34
2023-01-07T08:51:19.199Z,62.24
2023-01-07T08:53:47.977Z,60.27
2023-01-07T08:56:16.278Z,58.27
2023-01-07T08:58:44.276Z,55.84
2023-01-07T09:01:12.333Z,53.91
2023-01-07T09:03:40.806Z,51.44
2023-01-07T09:06:08.812Z,48.77
2023-01-07T09:08:37.121Z,46.18
2023-01-07T09:11:05.477Z,44.63
2023-01-07T09:13:33.435Z,44.05
2023-01-07T09:16:01.591Z,45.00
2023-01-07T09:18:30.335Z,44.81
2023-01-07T09:20:58.309Z,45.50
2023-01-07T09:23:26.247Z,43.12
2023-01-07T09:25:54.547Z,47.73
2023-01-07T09:28:22.653Z,46.09
2023-01-07T09:30:50.591Z,42.97
2023-01-07T09:33:18.815Z,43.41
2023-01-07T09:35:46.807Z,46.86
2023-01-07T09:38:14.903Z,46.97
2023-01-07T09:40:44.827Z,51.02
2023-01-07T09:43:18.900Z,49.66
2023-01-07T09:45:51.241Z,48.29
2023-01-07T09:48:34.830Z,47.69
2023-01-07T09:51:06.168Z,48.24
2023-01-07T09:53:46.790Z,49.29
2023-01-07T09:56:30.950Z,48.62
2023-01-07T09:59:01.019Z,48.74
2023-01-07T10:01:58.088Z,48.52
2023-01-07T10:04:38.825Z,43.86
2023-01-07T10:07:27.883Z,44.11
2023-01-07T10:10:18.342Z,41.91
2023-01-07T10:12:51.163Z,40.03
2023-01-07T10:15:41.530Z,39.76
2023-01-07T10:18:21.646Z,38.51
2023-01-07T10:21:16.282Z,36.27
2023-01-07T10:23:49.965Z,36.23
2023-01-07T10:26:30.955Z,34.38
2023-01-07T10:29:05.505Z,35.09
2023-01-07T10:31:34.070Z,35.24
2023-01-07T10:34:02.306Z,34.23
2023-01-07T10:36:46.237Z,32.98
2023-01-07T10:39:22.083Z,33.40
2023-01-07T10:42:39.715Z,30.81
2023-01-07T10:45:41.890Z,32.44
2023-01-07T10:48:35.818Z,34.06
2023-01-07T10:51:11.541Z,33.90
2023-01-07T10:54:00.731Z,32.18
2023-01-07T10:56:40.984Z,33.17
2023-01-07T10:59:16.237Z,32.80
2023-01-07T11:01:52.866Z,33.51
2023-01-07T11:04:21.480Z,31.04
2023-01-07T11:06:52.859Z,31.89
2023-01-07T11:09:42.918Z,33.82
2023-01-07T11:12:33.208Z,31.32
2023-01-07T11:15:05.242Z,30.83
2023-01-07T11:17:40.826Z,30.03
2023-01-07T11:20:09.654Z,32.95
2023-01-07T11:22:39.269Z,30.09
2023-01-07T11:25:29.086Z,29.52
2023-01-07T11:28:00.124Z,31.02
2023-01-07T11:30:30.041Z,31.03
2023-01-07T11:33:06.621Z,31.64
2023-01-07T11:35:35.334Z,32.44
2023-01-07T11:38:28.811Z,30.04
2023-01-07T11:41:00.681Z,31.25
2023-01-07T11:43:39.278Z,31.66
2023-01-07T11:46:21.460Z,32.07
2023-01-07T11:48:58.400Z,33.56
2023-01-07T11:51:27.432Z,32.70
2023-01-07T11:53:57.864Z,32.03
2023-01-07T11:56:34.257Z,32.49
2023-01-07T11:59:29.642Z,32.78
2023-01-07T12:01:59.830Z,32.36
2023-01-07T12:04:36.283Z,34.17
2023-01-07T12:07:14.474Z,31.68
2023-01-07T12:09:44.550Z,30.30
2023-01-07T12:12:37.215Z,34.01
2023-01-07T12:15:18.015Z,32.69
2023-01-07T12:17:48.243Z,33.05
2023-01-07T12:20:39.698Z,32.78
2023-01-07T12:23:43.160Z,31.09
2023-01-07T12:26:16.718Z,32.45
2023-01-07T12:28:56.591Z,31.76
2023-01-07T12:31:36.889Z,33.53
2023-01-07T12:34:11.056Z,34.08
2023-01-07T12:36:54.691Z,33.66
2023-01-07T12:39:28.045Z,35.47
2023-01-07T12:42:02.904Z,36.52
2023-01-07T12:44:31.652Z,37.12
2023-01-07T12:47:30.832Z,37.85
2023-01-07T12:50:14.023Z,38.04
2023-01-07T12:52:57.803Z,39.50
2023-01-07T12:55:43.541Z,41.59
2023-01-07T12:58:40.543Z,43.27
2023-01-07T13:01:26.321Z,43.21
2023-01-07T13:04:12.416Z,43.90
2023-01-07T13:06:45.421Z,45.30
2023-01-07T13:09:24.795Z,45.32
2023-01-07T13:12:45.515Z,46.85
2023-01-07T13:15:22.956Z,48.24
2023-01-07T13:17:54.158Z,48.12
2023-01-07T13:20:35.486Z,48.41
2023-01-07T13:23:04.654Z,47.92
2023-01-07T13:25:38.826Z,48.49
2023-01-07T13:28:22.370Z,48.15
2023-01-07T13:31:07.568Z,49.12
2023-01-07T13:33:51.937Z,50.00
2023-01-07T13:36:35.196Z,51.17
2023-01-07T13:39:22.488Z,51.65
2023-01-07T13:42:09.247Z,52.14
2023-01-07T13:44:52.508Z,53.35
2023-01-07T13:47:23.146Z,53.41
2023-01-07T13:49:57.767Z,55.57
2023-01-07T13:52:29.263Z,55.53
2023-01-07T13:55:02.567Z,55.82
2023-01-07T13:57:30.989Z,55.91
2023-01-07T14:00:00.745Z,55.88
2023-01-07T14:02:29.893Z,56.94
2023-01-07T14:05:07.836Z,56.66
2023-01-07T14:07:50.949Z,57.90
2023-01-07T14:10:29.620Z,59.01
2023-01-07T14:13:15.999Z,58.09
2023-01-07T14:16:11.869Z,58.55
2023-01-07T14:19:24.273Z,60.79
2023-01-07T14:22:01.495Z,61.99
2023-01-07T14:24:54.426Z,62.37
2023-01-07T14:27:53.107Z,61.04
2023-01-07T14:30:43.340Z,62.29
2023-01-07T14:33:20.810Z,62.23
2023-01-07T14:36:08.985Z,64.13
2023-01-07T14:38:37.157Z,63.92
2023-01-07T14:41:16.441Z,62.57
2023-01-07T14:43:47.399Z,63.80
2023-01-07T14:46:38.335Z,64.54
2023-01-07T14:49:12.843Z,65.61
2023-01-07T14:51:46.886Z,65.08
2023-01-07T14:54:33.457Z,65.65
2023-01-07T14:57:07.708Z,65.44
2023-01-07T14:59:56.067Z,65.56
2023-01-07T15:03:01.594Z,66.04
2023-01-07T15:05:35.649Z,66.13
2023-01-07T15:08:26.537Z,69.68
2023-01-07T15:11:14.381Z,71.46
2023-01-07T15:14:04.468Z,72.68
2023-01-07T15:16:34.692Z,72.96
2023-01-07T15:19:02.768Z,74.35
2023-01-07T15:21:44.553Z,73.37
2023-01-07T15:24:40.679Z,72.10
2023-01-07T15:27:15.511Z,73.35
2023-01-07T15:29:52.745Z,74.29
2023-01-07T15:32:35.765Z,73.99
2023-01-07T15:35:22.086Z,73.48
2023-01-07T15:37:51.576Z,73.49
2023-01-07T15:40:25.603Z,73.88
2023-01-07T15:42:54.779Z,74.01
2023-01-07T15:45:25.700Z,73.89
2023-01-07T15:48:06.059Z,75.33
2023-01-07T15:50:37.544Z,73.97
2023-01-07T15:53:11.868Z,73.03
2023-01-07T15:55:49.774Z,73.74
2023-01-07T15:58:20.717Z,73.96
2023-01-07T16:00:51.457Z,75.26
2023-01-07T16:03:20.957Z,74.45
2023-01-07T16:05:49.175Z,75.14
2023-01-07T16:08:39.368Z,76.18
2023-01-07T16:11:20.884Z,77.53
2023-01-07T16:14:02.752Z,75.71
2023-01-07T16:16:32.644Z,75.86
2023-01-07T16:19:02.396Z,77.85
2023-01-07T16:21:41.677Z,75.39
2023-01-07T16:24:16.371Z,79.41
2023-01-07T16:26:51.702Z,80.08
2023-01-07T16:29:24.109Z,80.01
2023-01-07T16:31:53.049Z,82.98
2023-01-07T16:34:24.112Z,81.38
2023-01-07T16:36:55.742Z,79.80
2023-01-07T16:39:35.618Z,81.28
2023-01-07T16:42:23.459Z,80.94
2023-01-07T16:44:51.638Z,81.07
2023-01-07T16:47:25.429Z,81.52
2023-01-07T16:50:03.229Z,83.42
2023-01-07T16:52:34.916Z,83.58
2023-01-07T16:55:02.906Z,82.47
2023-01-07T16:57:42.576Z,82.79
2023-01-07T17:00:20.594Z,83.77
2023-01-07T17:02:49.164Z,82.64
2023-01-07T17:05:32.499Z,82.37
2023-01-07T17:08:06.838Z,86.93
2023-01-07T17:10:36.820Z,85.43
2023-01-07T17:13:27.789Z,85.70
2023-01-07T17:16:15.562Z,86.44
2023-01-07T17:18:43.974Z,84.82
2023-01-07T17:21:39.540Z,85.37
2023-01-07T17:24:29.850Z,86.26
2023-01-07T17:27:00.152Z,86.06
2023-01-07T17:29:35.200Z,89.55
2023-01-07T17:32:05.703Z,91.19
2023-01-07T17:34:34.092Z,88.62
2023-01-07T17:37:02.031Z,91.81
2023-01-07T17:39:29.974Z,92.90
2023-01-07T17:42:16.730Z,94.56
2023-01-07T17:44:45.889Z,93.95
2023-01-07T17:47:15.350Z,94.01
2023-01-07T17:49:43.335Z,95.30
2023-01-07T17:52:11.518Z,95.69
2023-01-07T17:54:40.167Z,94.09
2023-01-07T17:57:11.477Z,93.12
2023-01-07T17:59:39.839Z,92.82
2023-01-07T18:02:14.081Z,92.93
2023-01-07T18:04:42.567Z,93.32
2023-01-07T18:07:16.853Z,92.62
2023-01-07T18:09:45.163Z,93.65
2023-01-07T18:12:30.545Z,92.38
2023-01-07T18:15:01.864Z,92.98
2023-01-07T18:17:30.341Z,92.61
2023-01-07T18:19:58.737Z,92.18
2023-01-07T18:22:26.766Z,92.61
2023-01-07T18:24:54.807Z,91.79
2023-01-07T18:27:23.297Z,93.95
2023-01-07T18:29:51.227Z,92.68
2023-01-07T18:32:19.297Z,92.92
2023-01-07T18:34:50.968Z,92.54
2023-01-07T18:37:19.007Z,91.90
2023-01-07T18:39:47.359Z,92.16
2023-01-07T18:42:16.088Z,92.26
2023-01-07T18:44:44.120Z,91.99
2023-01-07T18:47:12.627Z,91.11
2023-01-07T18:49:40.516Z,91.42
2023-01-07T18:52:09.210Z,91.56
2023-01-07T18:54:39.517Z,92.64
2023-01-07T18:57:07.888Z,93.50
2023-01-07T18:59:35.870Z,92.01
2023-01-07T19:02:04.345Z,91.15
2023-01-07T19:04:34.596Z,92.74
2023-01-07T19:07:03.674Z,92.37
2023-01-07T19:09:32.026Z,93.79
2023-01-07T19:12:00.392Z,94.14
2023-01-07T19:14:28.447Z,92.91
2023-01-07T19:16:57.218Z,92.11
2023-01-07T19:19:25.372Z,91.10
2023-01-07T19:21:54.283Z,94.45
2023-01-07T19:24:24.378Z,95.07
2023-01-07T19:26:52.889Z,93.21
2023-01-07T19:29:21.174Z,93.72
2023-01-07T19:31:49.746Z,95.19
2023-01-07T19:34:18.668Z,93.92
2023-01-07T19:36:47.417Z,94.80
2023-01-07T19:39:19.713Z,96.01
2023-01-07T19:41:47.936Z,94.48
2023-01-07T19:44:16.752Z,93.09
2023-01-07T19:46:48.753Z,93.93
2023-01-07T19:49:17.727Z,93.52
2023-01-07T19:51:46.327Z,94.20
2023-01-07T19:54:17.859Z,96.38
2023-01-07T19:56:47.807Z,95.48
2023-01-07T19:59:16.897Z,94.11
2023-01-07T20:01:46.332Z,95.61
2023-01-07T20:04:14.779Z,93.30
2023-01-07T20:06:44.052Z,94.49
2023-01-07T20:09:12.821Z,92.10
2023-01-07T20:11:48.692Z,94.07
2023-01-07T20:14:17.997Z,95.35
2023-01-07T20:16:46.490Z,92.32
2023-01-07T20:19:14.641Z,93.42
2023-01-07T20:21:42.714Z,93.79
2023-01-07T20:24:13.438Z,94.60
2023-01-07T20:26:41.996Z,92.65
2023-01-07T20:29:10.980Z,94.02
2023-01-07T20:31:38.942Z,95.11
2023-01-07T20:34:07.150Z,93.84
2023-01-07T20:36:35.513Z,92.44
2023-01-07T20:39:06.239Z,95.37
2023-01-07T20:41:35.282Z,94.88
2023-01-07T20:44:05.343Z,92.36
2023-01-07T20:46:36.711Z,95.38
2023-01-07T20:49:05.098Z,94.11
2023-01-07T20:51:34.138Z,93.21
2023-01-07T20:54:02.308Z,94.16
2023-01-07T20:56:33.614Z,93.31
2023-01-07T20:59:02.466Z,93.14
2023-01-07T21:01:31.127Z,93.64
2023-01-07T21:03:59.512Z,92.33
2023-01-07T21:06:27.547Z,93.90
2023-01-07T21:08:56.146Z,93.37
2023-01-07T21:11:25.010Z,93.04
2023-01-07T21:13:56.205Z,93.46
2023-01-07T21:16:25.858Z,91.17
2023-01-07T21:18:54.182Z,93.36
2023-01-07T21:21:25.418Z,94.49
2023-01-07T21:23:54.598Z,92.34
2023-01-07T21:26:23.824Z,92.84
2023-01-07T21:28:56.272Z,92.64
2023-01-07T21:31:26.215Z,93.01
2023-01-07T21:33:56.264Z,93.59
2023-01-07T21:36:25.942Z,92.42
2023-01-07T21:38:56.785Z,92.89
2023-01-07T21:41:25.775Z,91.92
2023-01-07T21:43:54.024Z,91.59
2023-01-07T21:46:23.361Z,93.62
2023-01-07T21:48:52.160Z,93.13
2023-01-07T21:51:22.918Z,92.71
2023-01-07T21:53:58.058Z,93.63
2023-01-07T21:56:29.005Z,91.97
2023-01-07T21:58:57.292Z,94.32
2023-01-07T22:01:28.906Z,92.00
2023-01-07T22:03:59.144Z,93.87
2023-01-07T22:06:29.826Z,92.43
2023-01-07T22:09:00.391Z,93.84
2023-01-07T22:11:28.753Z,92.05
2023-01-07T22:13:58.504Z,93.10
2023-01-07T22:16:29.399Z,90.22
2023-01-07T22:18:58.058Z,90.56
2023-01-07T22:21:26.517Z,91.54
2023-01-07T22:23:54.410Z,90.87
2023-01-07T22:26:22.700Z,91.84
2023-01-07T22:28:56.103Z,90.94
2023-01-07T22:31:30.569Z,92.88
2023-01-07T22:33:59.080Z,91.12
2023-01-07T22:36:32.340Z,91.12
2023-01-07T22:39:04.209Z,92.62
2023-01-07T22:41:33.865Z,92.29
2023-01-07T22:44:12.978Z,91.22
2023-01-07T22:46:43.401Z,92.29
2023-01-07T22:49:11.812Z,91.85
2023-01-07T22:51:42.918Z,91.75
2023-01-07T22:54:12.044Z,93.14
2023-01-07T22:56:41.096Z,93.14
2023-01-07T22:59:09.384Z,93.07
2023-01-07T23:01:38.485Z,91.54
2023-01-07T23:04:06.743Z,92.59
2023-01-07T23:06:34.712Z,92.74
2023-01-07T23:09:03.160Z,93.95
2023-01-07T23:11:51.169Z,93.67
2023-01-07T23:14:23.256Z,94.25
2023-01-07T23:16:52.188Z,92.99
2023-01-07T23:19:21.092Z,92.37
2023-01-07T23:21:51.554Z,93.16
2023-01-07T23:24:20.025Z,92.38
2023-01-07T23:26:50.592Z,93.82
2023-01-07T23:29:19.441Z,94.35
2023-01-07T23:31:47.580Z,95.23
2023-01-07T23:34:16.223Z,95.31
2023-01-07T23:36:44.613Z,93.87
2023-01-07T23:39:13.161Z,92.20
2023-01-07T23:41:41.473Z,91.94
2023-01-07T23:44:09.483Z,92.36
2023-01-07T23:46:37.560Z,92.93
2023-01-07T23:49:05.827Z,94.63
2023-01-07T23:51:33.815Z,93.52
2023-01-07T23:54:01.763Z,92.44
2023-01-07T23:56:30.204Z,93.33
2023-01-07T23:58:58.121Z,92.41
